createdAt,value
2023-01-12T00:02:25.279Z,8.61
2023-01-12T00:04:54.936Z,8.64
2023-01-12T00:07:23.670Z,8.64
2023-01-12T00:09:51.931Z,8.66
2023-01-12T00:12:20.143Z,8.62
2023-01-12T00:14:48.400Z,8.65
2023-01-12T00:17:19.572Z,8.64
2023-01-12T00:19:47.934Z,8.65
2023-01-12T00:22:18.395Z,8.63
2023-01-12T00:24:49.934Z,8.62
2023-01-12T00:27:20.303Z,8.64
2023-01-12T00:29:49.468Z,8.65
2023-01-12T00:32:19.601Z,8.67
2023-01-12T00:34:47.926Z,8.68
2023-01-12T00:37:18.044Z,8.63
2023-01-12T00:40:00.873Z,8.62
2023-01-12T00:42:47.823Z,8.62
2023-01-12T00:45:25.494Z,8.60
2023-01-12T00:47:54.500Z,8.56
2023-01-12T00:50:23.186Z,8.53
2023-01-12T00:52:52.812Z,8.50
2023-01-12T00:55:21.038Z,8.45
2023-01-12T00:57:49.636Z,8.46
2023-01-12T01:00:18.791Z,8.44
2023-01-12T01:02:47.187Z,8.45
2023-01-12T01:05:15.742Z,8.48
2023-01-12T01:07:44.000Z,8.48
2023-01-12T01:10:14.233Z,8.44
2023-01-12T01:12:42.703Z,8.47
2023-01-12T01:15:11.899Z,8.45
2023-01-12T01:17:40.204Z,8.45
2023-01-12T01:20:09.277Z,8.47
2023-01-12T01:22:37.531Z,8.38
2023-01-12T01:25:06.980Z,8.41
2023-01-12T01:27:36.644Z,8.47
2023-01-12T01:30:06.010Z,8.41
2023-01-12T01:32:34.641Z,8.48
2023-01-12T01:35:03.002Z,8.50
2023-01-12T01:37:31.545Z,8.55
2023-01-12T01:39:59.797Z,8.60
2023-01-12T01:42:30.902Z,8.60
2023-01-12T01:45:02.566Z,8.60
2023-01-12T01:47:37.566Z,8.63
2023-01-12T01:50:16.262Z,8.60
2023-01-12T01:52:48.766Z,8.63
2023-01-12T01:55:22.422Z,8.62
2023-01-12T01:57:54.623Z,8.60
2023-01-12T02:00:25.327Z,8.57
2023-01-12T02:02:55.329Z,8.60
2023-01-12T02:05:26.760Z,8.58
2023-01-12T02:07:55.952Z,8.56
2023-01-12T02:10:24.285Z,8.58
2023-01-12T02:13:09.625Z,8.58
2023-01-12T02:16:21.522Z,8.58
2023-01-12T02:19:03.590Z,8.56
2023-01-12T02:22:07.702Z,8.57
2023-01-12T02:25:14.898Z,8.55
2023-01-12T02:28:05.297Z,8.53
2023-01-12T02:31:15.942Z,8.56
2023-01-12T02:33:55.211Z,8.53
2023-01-12T02:36:33.029Z,8.58
2023-01-12T02:39:07.402Z,8.58
2023-01-12T02:41:57.794Z,8.58
2023-01-12T02:44:31.536Z,8.60
2023-01-12T02:47:02.048Z,8.56
2023-01-12T02:49:36.623Z,8.58
2023-01-12T02:52:10.594Z,8.60
2023-01-12T02:54:41.689Z,8.61
2023-01-12T02:57:11.797Z,8.61
2023-01-12T02:59:43.073Z,8.61
2023-01-12T03:02:15.001Z,8.59
2023-01-12T03:04:45.057Z,8.60
2023-01-12T03:07:31.548Z,8.60
2023-01-12T03:10:11.623Z,8.61
2023-01-12T03:12:42.446Z,8.62
2023-01-12T03:15:15.437Z,8.60
2023-01-12T03:17:48.470Z,8.58
2023-01-12T03:20:24.627Z,8.59
2023-01-12T03:22:57.856Z,8.56
2023-01-12T03:25:28.005Z,8.56
2023-01-12T03:27:59.453Z,8.59
2023-01-12T03:30:35.003Z,8.59
2023-01-12T03:33:03.927Z,8.59
2023-01-12T03:35:40.201Z,8.59
2023-01-12T03:38:13.834Z,8.58
2023-01-12T03:40:47.870Z,8.62
2023-01-12T03:43:19.367Z,8.62
2023-01-12T03:45:51.088Z,8.64
2023-01-12T03:48:24.544Z,8.66
2023-01-12T03:50:58.693Z,8.64
2023-01-12T03:53:27.430Z,8.65
2023-01-12T03:55:58.542Z,8.68
2023-01-12T03:58:27.181Z,8.70
2023-01-12T04:00:55.586Z,8.67
2023-01-12T04:03:24.442Z,8.66
2023-01-12T04:05:54.170Z,8.66
2023-01-12T04:08:22.996Z,8.68
2023-01-12T04:10:51.215Z,8.70
2023-01-12T04:13:19.470Z,8.68
2023-01-12T04:15:48.483Z,8.68
2023-01-12T04:18:16.818Z,8.68
2023-01-12T04:20:45.052Z,8.73
2023-01-12T04:23:13.726Z,8.72
2023-01-12T04:25:41.916Z,8.70
2023-01-12T04:28:10.236Z,8.68
2023-01-12T04:30:38.468Z,8.68
2023-01-12T04:33:09.368Z,8.66
2023-01-12T04:35:38.014Z,8.68
2023-01-12T04:38:09.947Z,8.64
2023-01-12T04:40:39.642Z,8.68
2023-01-12T04:43:09.907Z,8.63
2023-01-12T04:45:40.025Z,8.68
2023-01-12T04:48:10.149Z,8.66
2023-01-12T04:50:39.410Z,8.65
2023-01-12T04:53:09.552Z,8.66
2023-01-12T04:55:42.153Z,8.68
2023-01-12T04:58:11.089Z,8.67
2023-01-12T05:00:39.430Z,8.70
2023-01-12T05:03:07.793Z,8.70
2023-01-12T05:05:37.499Z,8.66
2023-01-12T05:08:25.200Z,8.70
2023-01-12T05:10:56.616Z,8.76
2023-01-12T05:13:26.236Z,8.78
2023-01-12T05:15:54.613Z,8.79
2023-01-12T05:18:22.988Z,8.86
2023-01-12T05:20:51.229Z,8.87
2023-01-12T05:23:19.473Z,8.89
2023-01-12T05:25:47.719Z,8.89
2023-01-12T05:28:17.417Z,8.94
2023-01-12T05:30:45.717Z,8.92
2023-01-12T05:33:16.519Z,8.92
2023-01-12T05:35:44.748Z,8.93
2023-01-12T05:38:13.057Z,8.95
2023-01-12T05:40:41.271Z,8.94
2023-01-12T05:43:30.638Z,8.98
2023-01-12T05:46:04.305Z,8.96
2023-01-12T05:48:33.196Z,8.98
2023-01-12T05:51:02.669Z,9.00
2023-01-12T05:53:31.022Z,8.96
2023-01-12T05:56:00.004Z,9.04
2023-01-12T05:58:28.224Z,9.06
2023-01-12T06:00:56.543Z,9.06
2023-01-12T06:03:27.811Z,9.04
2023-01-12T06:05:58.626Z,9.06
2023-01-12T06:08:26.857Z,9.11
2023-01-12T06:10:55.149Z,9.10
2023-01-12T06:13:40.831Z,9.12
2023-01-12T06:16:09.302Z,9.10
2023-01-12T06:18:40.926Z,9.11
2023-01-12T06:21:12.615Z,9.12
2023-01-12T06:23:40.969Z,9.16
2023-01-12T06:26:10.708Z,9.14
2023-01-12T06:28:40.604Z,9.14
2023-01-12T06:31:10.611Z,9.14
2023-01-12T06:33:40.814Z,9.15
2023-01-12T06:36:10.050Z,9.15
2023-01-12T06:38:38.824Z,9.14
2023-01-12T06:41:08.760Z,9.18
2023-01-12T06:43:37.428Z,9.19
2023-01-12T06:46:06.122Z,9.20
2023-01-12T06:48:38.898Z,9.22
2023-01-12T06:51:09.076Z,9.22
2023-01-12T06:53:37.314Z,9.22
2023-01-12T06:56:06.530Z,9.25
2023-01-12T06:58:34.826Z,9.24
2023-01-12T07:01:03.681Z,9.25
2023-01-12T07:03:32.239Z,9.29
2023-01-12T07:06:01.035Z,9.29
2023-01-12T07:08:30.623Z,9.27
2023-01-12T07:11:02.079Z,9.32
2023-01-12T07:13:30.561Z,9.34
2023-01-12T07:16:00.040Z,9.37
2023-01-12T07:18:29.703Z,9.36
2023-01-12T07:20:58.324Z,9.40
2023-01-12T07:23:26.811Z,9.38
2023-01-12T07:25:57.976Z,9.41
2023-01-12T07:28:26.381Z,9.46
2023-01-12T07:30:54.597Z,9.49
2023-01-12T07:33:22.805Z,9.49
2023-01-12T07:35:51.019Z,9.50
2023-01-12T07:38:19.295Z,9.53
2023-01-12T07:40:47.511Z,9.51
2023-01-12T07:43:19.090Z,9.52
2023-01-12T07:45:47.384Z,9.53
2023-01-12T07:48:16.423Z,9.54
2023-01-12T07:50:44.878Z,9.56
2023-01-12T07:53:13.135Z,9.54
2023-01-12T07:55:43.720Z,9.55
2023-01-12T07:58:11.995Z,9.57
2023-01-12T08:00:41.827Z,9.57
2023-01-12T08:03:11.828Z,9.56
2023-01-12T08:05:40.815Z,9.59
2023-01-12T08:08:09.482Z,9.57
2023-01-12T08:10:37.967Z,9.59
2023-01-12T08:13:06.340Z,9.60
2023-01-12T08:15:39.739Z,9.62
2023-01-12T08:18:14.882Z,9.63
2023-01-12T08:20:43.571Z,9.61
2023-01-12T08:23:15.068Z,9.65
2023-01-12T08:25:48.384Z,9.67
2023-01-12T08:28:20.956Z,9.67
2023-01-12T08:30:50.297Z,9.70
2023-01-12T08:33:20.579Z,9.71
2023-01-12T08:35:49.544Z,9.71
2023-01-12T08:38:19.255Z,9.74
2023-01-12T08:41:07.575Z,9.76
2023-01-12T08:43:52.963Z,9.78
2023-01-12T08:46:22.330Z,9.79
2023-01-12T08:48:54.514Z,9.80
2023-01-12T08:51:25.028Z,9.82
2023-01-12T08:53:53.366Z,9.84
2023-01-12T08:56:21.706Z,9.88
2023-01-12T08:58:50.338Z,9.86
2023-01-12T09:01:20.115Z,9.88
2023-01-12T09:03:49.291Z,9.91
2023-01-12T09:06:21.030Z,9.92
2023-01-12T09:08:49.642Z,9.94
2023-01-12T09:11:17.908Z,9.92
2023-01-12T09:13:46.213Z,9.95
2023-01-12T09:16:16.900Z,9.93
2023-01-12T09:18:45.205Z,9.93
2023-01-12T09:21:15.450Z,9.95
2023-01-12T09:23:45.649Z,9.96
2023-01-12T09:26:15.881Z,9.97
2023-01-12T09:28:45.119Z,10.00
2023-01-12T09:31:17.330Z,9.98
2023-01-12T09:33:47.788Z,9.99
2023-01-12T09:36:21.896Z,10.01
2023-01-12T09:38:52.496Z,10.04
2023-01-12T09:41:42.388Z,10.04
2023-01-12T09:44:35.456Z,10.06
2023-01-12T09:47:06.256Z,10.04
2023-01-12T09:49:40.536Z,10.09
2023-01-12T09:52:15.022Z,10.10
2023-01-12T09:54:46.315Z,10.10
2023-01-12T09:57:42.527Z,10.09
2023-01-12T10:00:13.856Z,10.13
2023-01-12T10:02:46.587Z,10.13
2023-01-12T10:05:26.033Z,10.13
2023-01-12T10:07:59.761Z,10.15
2023-01-12T10:10:29.519Z,10.16
2023-01-12T10:13:03.874Z,10.21
2023-01-12T10:15:43.831Z,10.24
2023-01-12T10:18:18.863Z,10.23
2023-01-12T10:20:47.180Z,10.23
2023-01-12T10:23:19.336Z,10.24
2023-01-12T10:25:50.915Z,10.23
2023-01-12T10:28:24.185Z,10.25
2023-01-12T10:30:56.087Z,10.24
2023-01-12T10:33:26.546Z,10.25
2023-01-12T10:35:58.037Z,10.25
2023-01-12T10:38:29.561Z,10.25
2023-01-12T10:41:08.026Z,10.27
2023-01-12T10:43:36.706Z,10.27
2023-01-12T10:46:09.920Z,10.24
2023-01-12T10:48:40.395Z,10.28
2023-01-12T10:51:19.675Z,10.29
2023-01-12T10:53:50.717Z,10.30
2023-01-12T10:56:28.942Z,10.27
2023-01-12T10:59:00.124Z,10.27
2023-01-12T11:01:44.363Z,10.27
2023-01-12T11:04:16.325Z,10.24
2023-01-12T11:06:46.934Z,10.26
2023-01-12T11:09:25.489Z,10.25
2023-01-12T11:11:57.464Z,10.27
2023-01-12T11:14:30.070Z,10.22
2023-01-12T11:17:21.152Z,10.25
2023-01-12T11:19:51.519Z,10.25
2023-01-12T11:22:23.723Z,10.27
2023-01-12T11:24:58.199Z,10.26
2023-01-12T11:27:32.844Z,10.27
2023-01-12T11:30:07.479Z,10.28
2023-01-12T11:32:42.199Z,10.27
2023-01-12T11:35:32.891Z,10.26
2023-01-12T11:38:10.737Z,10.27
2023-01-12T11:40:41.180Z,10.27
2023-01-12T11:43:41.732Z,10.27
2023-01-12T11:46:18.431Z,10.26
2023-01-12T11:48:53.228Z,10.28
2023-01-12T11:51:21.567Z,10.27
2023-01-12T11:53:49.944Z,10.28
2023-01-12T11:56:50.619Z,10.26
2023-01-12T11:59:27.967Z,10.25
2023-01-12T12:02:08.410Z,10.24
2023-01-12T12:04:52.263Z,10.23
2023-01-12T12:07:34.837Z,10.22
2023-01-12T12:10:18.660Z,10.21
2023-01-12T12:13:25.203Z,10.21
2023-01-12T12:16:03.656Z,10.18
2023-01-12T12:18:43.527Z,10.21
2023-01-12T12:21:20.270Z,10.18
2023-01-12T12:23:57.713Z,10.16
2023-01-12T12:26:30.625Z,10.18
2023-01-12T12:29:22.465Z,10.21
2023-01-12T12:32:01.906Z,10.21
2023-01-12T12:34:47.123Z,10.18
2023-01-12T12:37:22.152Z,10.16
2023-01-12T12:39:56.611Z,10.18
2023-01-12T12:43:07.271Z,10.16
2023-01-12T12:45:48.098Z,10.16
2023-01-12T12:48:23.205Z,10.15
2023-01-12T12:51:01.326Z,10.14
2023-01-12T12:53:33.913Z,10.15
2023-01-12T12:56:04.693Z,10.15
2023-01-12T12:58:47.670Z,10.18
2023-01-12T13:01:42.469Z,10.19
2023-01-12T13:04:15.341Z,10.16
2023-01-12T13:06:49.427Z,10.16
2023-01-12T13:09:38.622Z,10.20
2023-01-12T13:12:34.924Z,10.18
2023-01-12T13:15:37.126Z,10.20
2023-01-12T13:18:07.522Z,10.22
2023-01-12T13:21:05.594Z,10.24
2023-01-12T13:24:25.156Z,10.24
2023-01-12T13:26:58.822Z,10.24
2023-01-12T13:29:44.341Z,10.23
2023-01-12T13:32:57.647Z,10.28
2023-01-12T13:36:05.088Z,10.28
2023-01-12T13:39:04.375Z,10.24
2023-01-12T13:41:53.695Z,10.25
2023-01-12T13:44:26.972Z,10.26
2023-01-12T13:47:07.107Z,10.25
2023-01-12T13:49:44.951Z,10.25
2023-01-12T13:52:31.340Z,10.27
2023-01-12T13:55:00.169Z,10.26
2023-01-12T13:57:30.677Z,10.26
2023-01-12T14:00:04.850Z,10.26
2023-01-12T14:02:41.665Z,10.26
2023-01-12T14:05:27.866Z,10.26
2023-01-12T14:08:09.941Z,10.30
2023-01-12T14:10:43.808Z,10.30
2023-01-12T14:13:42.505Z,10.27
2023-01-12T14:17:05.442Z,10.28
2023-01-12T14:19:34.043Z,10.30
2023-01-12T14:22:09.366Z,10.28
2023-01-12T14:24:39.156Z,10.28
2023-01-12T14:27:17.074Z,10.26
2023-01-12T14:29:45.875Z,10.27
2023-01-12T14:32:15.089Z,10.27
2023-01-12T14:34:51.271Z,10.27
2023-01-12T14:37:30.563Z,10.27
2023-01-12T14:40:03.277Z,10.28
2023-01-12T14:42:50.742Z,10.30
2023-01-12T14:45:42.644Z,10.27
2023-01-12T14:48:24.715Z,10.27
2023-01-12T14:51:04.141Z,10.27
2023-01-12T14:53:37.832Z,10.27
2023-01-12T14:56:18.562Z,10.26
2023-01-12T14:58:50.070Z,10.27
2023-01-12T15:01:33.894Z,10.25
2023-01-12T15:04:03.039Z,10.27
2023-01-12T15:06:39.804Z,10.27
2023-01-12T15:09:27.652Z,10.25
2023-01-12T15:11:57.520Z,10.26
2023-01-12T15:14:33.017Z,10.23
2023-01-12T15:17:19.304Z,10.26
2023-01-12T15:20:05.044Z,10.26
2023-01-12T15:22:52.856Z,10.24
2023-01-12T15:25:40.432Z,10.22
2023-01-12T15:28:10.062Z,10.22
2023-01-12T15:30:40.255Z,10.24
2023-01-12T15:33:12.738Z,10.24
2023-01-12T15:35:45.861Z,10.23
2023-01-12T15:38:15.914Z,10.22
2023-01-12T15:40:45.207Z,10.24
2023-01-12T15:43:16.530Z,10.22
2023-01-12T15:45:54.977Z,10.21
2023-01-12T15:48:29.577Z,10.21
2023-01-12T15:51:02.085Z,10.21
2023-01-12T15:53:40.215Z,10.19
2023-01-12T15:56:18.287Z,10.21
2023-01-12T15:58:51.987Z,10.21
2023-01-12T16:01:32.555Z,10.20
2023-01-12T16:04:36.006Z,10.21
2023-01-12T16:06:53.629Z,10.18
2023-01-12T16:09:27.074Z,10.16
2023-01-12T16:11:55.869Z,10.19
2023-01-12T16:14:32.408Z,10.16
2023-01-12T16:17:01.451Z,10.15
2023-01-12T16:19:29.767Z,10.20
2023-01-12T16:22:02.817Z,10.20
2023-01-12T16:24:32.455Z,10.21
2023-01-12T16:27:01.761Z,10.22
2023-01-12T16:29:34.683Z,10.20
2023-01-12T16:32:06.709Z,10.19
2023-01-12T16:34:39.222Z,10.21
2023-01-12T16:37:15.353Z,10.21
2023-01-12T16:39:51.107Z,10.22
2023-01-12T16:42:23.694Z,10.21
2023-01-12T16:44:54.656Z,10.21
2023-01-12T16:47:24.433Z,10.16
2023-01-12T16:49:53.045Z,10.19
2023-01-12T16:52:23.689Z,10.21
2023-01-12T16:54:55.959Z,10.22
2023-01-12T16:57:25.926Z,10.23
2023-01-12T16:59:57.053Z,10.22
2023-01-12T17:02:32.162Z,10.22
2023-01-12T17:05:01.005Z,10.21
2023-01-12T17:07:35.296Z,10.22
2023-01-12T17:10:03.793Z,10.23
2023-01-12T17:12:35.678Z,10.23
2023-01-12T17:15:07.640Z,10.23
2023-01-12T17:17:36.272Z,10.23
2023-01-12T17:20:12.083Z,10.26
2023-01-12T17:22:44.690Z,10.22
2023-01-12T17:25:15.851Z,10.22
2023-01-12T17:27:44.323Z,10.21
2023-01-12T17:30:14.898Z,10.21
2023-01-12T17:32:43.279Z,10.22
2023-01-12T17:35:11.494Z,10.22
2023-01-12T17:37:40.387Z,10.19
2023-01-12T17:40:10.885Z,10.21
2023-01-12T17:42:56.563Z,10.22
2023-01-12T17:45:29.175Z,10.22
2023-01-12T17:47:58.456Z,10.22
2023-01-12T17:50:27.358Z,10.23
2023-01-12T17:52:58.131Z,10.22
2023-01-12T17:55:26.467Z,10.27
2023-01-12T17:57:54.724Z,10.27
2023-01-12T18:00:24.078Z,10.25
2023-01-12T18:02:53.791Z,10.24
2023-01-12T18:05:22.073Z,10.25
2023-01-12T18:07:50.392Z,10.24
2023-01-12T18:10:19.031Z,10.23
2023-01-12T18:12:47.415Z,10.26
2023-01-12T18:15:15.903Z,10.24
2023-01-12T18:17:44.331Z,10.23
2023-01-12T18:20:14.120Z,10.26
2023-01-12T18:22:42.467Z,10.27
2023-01-12T18:25:11.083Z,10.27
2023-01-12T18:27:40.364Z,10.28
2023-01-12T18:30:13.152Z,10.26
2023-01-12T18:32:41.701Z,10.26
2023-01-12T18:35:10.418Z,10.27
2023-01-12T18:37:40.212Z,10.27
2023-01-12T18:40:10.752Z,10.29
2023-01-12T18:42:49.925Z,10.28
2023-01-12T18:45:18.778Z,10.27
2023-01-12T18:48:15.967Z,10.27
2023-01-12T18:51:01.935Z,10.31
2023-01-12T18:53:33.600Z,10.27
2023-01-12T18:56:03.801Z,10.30
2023-01-12T18:58:34.681Z,10.33
2023-01-12T19:01:06.298Z,10.30
2023-01-12T19:03:35.661Z,10.30
2023-01-12T19:06:22.365Z,10.29
2023-01-12T19:09:07.147Z,10.28
2023-01-12T19:11:35.546Z,10.28
2023-01-12T19:14:21.345Z,10.31
2023-01-12T19:17:07.288Z,10.31
2023-01-12T19:19:35.973Z,10.28
2023-01-12T19:22:23.592Z,10.29
2023-01-12T19:25:10.601Z,10.30
2023-01-12T19:27:56.759Z,10.34
2023-01-12T19:30:25.149Z,10.35
2023-01-12T19:32:54.072Z,10.35
2023-01-12T19:35:22.453Z,10.31
2023-01-12T19:37:51.390Z,10.33
2023-01-12T19:40:26.533Z,10.30
2023-01-12T19:43:13.743Z,10.36
2023-01-12T19:45:43.331Z,10.35
2023-01-12T19:48:12.628Z,10.37
2023-01-12T19:50:43.272Z,10.39
2023-01-12T19:53:14.817Z,10.41
2023-01-12T19:55:44.636Z,10.43
2023-01-12T19:58:13.412Z,10.43
2023-01-12T20:00:45.138Z,10.48
2023-01-12T20:03:15.093Z,10.48
2023-01-12T20:05:44.492Z,10.46
2023-01-12T20:08:12.806Z,10.44
2023-01-12T20:10:41.723Z,10.46
2023-01-12T20:13:13.860Z,10.52
2023-01-12T20:15:43.453Z,10.55
2023-01-12T20:18:13.857Z,10.53
2023-01-12T20:20:43.303Z,10.53
2023-01-12T20:23:12.175Z,10.48
2023-01-12T20:25:41.435Z,10.46
2023-01-12T20:28:13.245Z,10.45
2023-01-12T20:30:41.948Z,10.43
2023-01-12T20:33:11.211Z,10.42
2023-01-12T20:35:44.703Z,10.45
2023-01-12T20:38:15.788Z,10.40
2023-01-12T20:40:45.061Z,10.38
2023-01-12T20:43:15.013Z,10.39
2023-01-12T20:45:44.287Z,10.38
2023-01-12T20:48:14.897Z,10.37
2023-01-12T20:50:44.483Z,10.34
2023-01-12T20:53:13.117Z,10.33
2023-01-12T20:55:51.660Z,10.26
2023-01-12T20:58:23.730Z,10.24
2023-01-12T21:00:57.187Z,10.21
2023-01-12T21:03:25.893Z,10.13
2023-01-12T21:05:57.960Z,10.11
2023-01-12T21:08:26.238Z,10.13
2023-01-12T21:10:55.525Z,10.03
2023-01-12T21:13:26.587Z,10.00
2023-01-12T21:16:05.567Z,9.97
2023-01-12T21:18:35.673Z,9.96
2023-01-12T21:21:09.617Z,10.00
2023-01-12T21:23:39.959Z,9.96
2023-01-12T21:26:11.214Z,9.93
2023-01-12T21:28:45.309Z,9.92
2023-01-12T21:31:20.604Z,9.86
2023-01-12T21:33:51.424Z,9.80
2023-01-12T21:36:19.937Z,9.76
2023-01-12T21:38:51.230Z,9.62
2023-01-12T21:41:30.493Z,9.48
2023-01-12T21:44:06.732Z,9.47
2023-01-12T21:46:35.703Z,9.39
2023-01-12T21:49:06.973Z,9.23
2023-01-12T21:51:35.637Z,9.12
2023-01-12T21:54:09.569Z,9.09
2023-01-12T21:56:41.902Z,9.14
2023-01-12T21:59:20.333Z,9.04
2023-01-12T22:01:50.705Z,8.96
2023-01-12T22:04:21.415Z,9.00
2023-01-12T22:06:56.493Z,9.03
2023-01-12T22:09:26.260Z,9.03
2023-01-12T22:11:54.512Z,8.95
2023-01-12T22:14:24.785Z,9.07
2023-01-12T22:16:56.087Z,9.03
2023-01-12T22:19:24.529Z,9.05
2023-01-12T22:21:53.034Z,9.01
2023-01-12T22:24:27.400Z,8.97
2023-01-12T22:26:59.041Z,8.95
2023-01-12T22:29:29.915Z,8.87
2023-01-12T22:32:01.794Z,8.96
2023-01-12T22:34:33.033Z,9.03
2023-01-12T22:37:01.306Z,9.02
2023-01-12T22:39:33.642Z,8.98
2023-01-12T22:42:01.905Z,9.03
2023-01-12T22:44:33.789Z,8.98
2023-01-12T22:47:05.655Z,9.03
2023-01-12T22:49:35.602Z,8.98
2023-01-12T22:52:06.841Z,8.96
2023-01-12T22:54:37.487Z,8.88
2023-01-12T22:57:09.791Z,8.89
2023-01-12T22:59:47.449Z,8.79
2023-01-12T23:02:29.726Z,8.72
2023-01-12T23:04:58.106Z,8.80
2023-01-12T23:07:30.031Z,8.74
2023-01-12T23:09:58.278Z,8.75
2023-01-12T23:12:27.311Z,8.65
2023-01-12T23:15:07.013Z,8.65
2023-01-12T23:17:36.770Z,8.65
2023-01-12T23:20:06.200Z,8.67
2023-01-12T23:22:35.231Z,8.66
2023-01-12T23:25:04.025Z,8.63
2023-01-12T23:27:37.534Z,8.60
2023-01-12T23:30:09.336Z,8.58
2023-01-12T23:32:39.881Z,8.51
2023-01-12T23:35:15.566Z,8.53
2023-01-12T23:37:47.588Z,8.57
2023-01-12T23:40:19.388Z,8.58
2023-01-12T23:42:53.160Z,8.60
2023-01-12T23:45:24.063Z,8.53
2023-01-12T23:47:54.303Z,8.52
2023-01-12T23:50:28.042Z,8.55
2023-01-12T23:52:56.344Z,8.49
2023-01-12T23:55:27.362Z,8.49
2023-01-12T23:57:55.696Z,8.45
